HELX 230700Z 05003KT 6000 NSC 32/10 Q1010 NOSIG
From batch tds/metars/production/2022/9/23/h07_m55_metars.cache.csv.gz
Observed at (9 days ago)
Identifier HELX
talk